createdAt,value
2023-01-21T00:13:05.317Z,101740.00
2023-01-21T00:55:15.521Z,101764.19
2023-01-21T01:14:56.549Z,101783.16
2023-01-21T01:35:47.058Z,101802.09
2023-01-21T02:01:06.213Z,101793.50
2023-01-21T02:21:28.507Z,101817.69
2023-01-21T02:32:57.616Z,101827.16
2023-01-21T02:44:26.913Z,101827.19
2023-01-21T02:51:47.411Z,101833.25
2023-01-21T02:58:43.616Z,101811.66
2023-01-21T03:18:26.448Z,101840.22
2023-01-21T04:03:37.056Z,101833.31
2023-01-21T04:10:22.685Z,101830.72
2023-01-21T04:34:54.711Z,101842.81
2023-01-21T04:54:36.628Z,101845.41
2023-01-21T05:15:08.005Z,101861.78
2023-01-21T05:35:26.681Z,101884.25
2023-01-21T06:41:53.554Z,101927.47
2023-01-21T07:37:57.204Z,101964.69
2023-01-21T07:49:26.539Z,101973.38
2023-01-21T08:05:07.581Z,101970.78
2023-01-21T08:25:26.731Z,101963.88
2023-01-21T08:45:34.834Z,101964.72
2023-01-21T09:35:44.507Z,101977.75
2023-01-21T10:36:46.773Z,101944.84
2023-01-21T10:48:14.528Z,101931.84
2023-01-21T11:47:03.872Z,101865.53
2023-01-21T12:17:03.251Z,101837.69
2023-01-21T12:24:12.024Z,101839.25
2023-01-21T12:26:47.931Z,101833.09
2023-01-21T12:29:25.303Z,101832.97
2023-01-21T12:32:16.687Z,101826.03
2023-01-21T12:34:48.435Z,101816.38
2023-01-21T12:37:24.689Z,101823.25
2023-01-21T12:39:52.943Z,101823.25
2023-01-21T12:42:20.031Z,101831.06
2023-01-21T12:44:49.814Z,101820.63
2023-01-21T12:47:25.910Z,101817.91
2023-01-21T12:49:56.009Z,101814.50
2023-01-21T12:52:30.215Z,101825.84
2023-01-21T12:55:11.451Z,101815.38
2023-01-21T12:57:43.495Z,101816.22
2023-01-21T13:00:20.431Z,101825.81
2023-01-21T13:02:56.536Z,101820.72
2023-01-21T13:05:29.745Z,101822.47
2023-01-21T13:08:23.080Z,101812.03
2023-01-21T13:10:56.054Z,101818.97
2023-01-21T13:13:35.606Z,101806.81
2023-01-21T13:16:07.288Z,101814.66
2023-01-21T13:18:37.298Z,101815.47
2023-01-21T13:21:08.018Z,101807.66
2023-01-21T13:23:46.415Z,101801.66
2023-01-21T13:26:25.312Z,101806.84
2023-01-21T13:29:01.901Z,101805.16
2023-01-21T13:31:40.875Z,101800.84
2023-01-21T13:34:31.202Z,101799.03
2023-01-21T13:37:18.821Z,101782.63
2023-01-21T13:40:26.757Z,101779.13
2023-01-21T13:43:09.591Z,101766.97
2023-01-21T13:45:59.093Z,101763.53
2023-01-21T13:49:20.766Z,101772.97
2023-01-21T13:52:00.007Z,101786.84
2023-01-21T13:54:53.763Z,101789.47
2023-01-21T13:57:42.237Z,101776.53
2023-01-21T14:00:16.560Z,101778.31
2023-01-21T14:03:03.489Z,101790.44
2023-01-21T14:05:40.929Z,101766.94
2023-01-21T14:08:16.930Z,101764.41
2023-01-21T14:10:57.973Z,101747.91
2023-01-21T14:14:06.732Z,101738.38
2023-01-21T14:16:48.406Z,101719.22
2023-01-21T14:19:18.495Z,101700.13
2023-01-21T14:22:04.690Z,101706.34
2023-01-21T14:24:47.051Z,101711.56
2023-01-21T14:27:32.655Z,101729.78
2023-01-21T14:30:54.055Z,101742.81
2023-01-21T14:33:29.794Z,101744.53
2023-01-21T14:35:57.137Z,101751.50
2023-01-21T14:38:49.242Z,101740.13
2023-01-21T14:41:16.724Z,101752.25
2023-01-21T14:43:44.553Z,101748.81
2023-01-21T14:46:26.205Z,101757.44
2023-01-21T14:49:14.196Z,101750.44
2023-01-21T14:51:48.420Z,101760.88
2023-01-21T14:54:19.115Z,101761.81
2023-01-21T14:56:53.675Z,101735.78
2023-01-21T14:59:37.970Z,101734.03
2023-01-21T15:02:24.114Z,101720.94
2023-01-21T15:05:15.978Z,101706.19
2023-01-21T15:07:46.125Z,101717.50
2023-01-21T15:10:22.249Z,101714.06
2023-01-21T15:13:01.504Z,101715.97
2023-01-21T15:15:34.323Z,101709.06
2023-01-21T15:18:09.649Z,101702.88
2023-01-21T15:20:43.157Z,101700.34
2023-01-21T15:23:29.455Z,101699.59
2023-01-21T15:26:09.191Z,101696.09
2023-01-21T15:28:40.457Z,101680.59
2023-01-21T15:31:10.726Z,101688.41
2023-01-21T15:33:42.566Z,101689.38
2023-01-21T15:36:31.196Z,101697.22
2023-01-21T15:39:04.145Z,101698.09
2023-01-21T15:41:52.747Z,101701.69
2023-01-21T15:44:38.349Z,101703.56
2023-01-21T15:47:35.481Z,101696.66
2023-01-21T15:50:19.515Z,101709.69
2023-01-21T15:53:05.292Z,101689.84
2023-01-21T15:55:51.558Z,101705.41
2023-01-21T15:58:32.356Z,101717.47
2023-01-21T16:01:06.354Z,101702.84
2023-01-21T16:03:43.155Z,101701.03
2023-01-21T16:06:28.404Z,101704.56
2023-01-21T16:09:05.614Z,101704.72
2023-01-21T16:12:20.241Z,101709.13
2023-01-21T16:15:40.205Z,101704.00
2023-01-21T16:18:13.782Z,101701.34
2023-01-21T16:20:46.297Z,101702.16
2023-01-21T16:23:15.094Z,101701.28
2023-01-21T16:26:19.910Z,101701.38
2023-01-21T16:28:51.351Z,101707.47
2023-01-21T16:31:18.795Z,101696.34
2023-01-21T16:33:46.420Z,101703.22
2023-01-21T16:36:17.027Z,101696.34
2023-01-21T16:38:45.948Z,101701.50
2023-01-21T16:41:16.308Z,101717.06
2023-01-21T16:43:46.667Z,101717.09
2023-01-21T16:46:36.310Z,101727.47
2023-01-21T16:49:14.033Z,101722.31
2023-01-21T16:51:45.587Z,101721.50
2023-01-21T16:54:22.682Z,101731.00
2023-01-21T16:57:05.037Z,101729.28
2023-01-21T16:59:45.000Z,101702.53
2023-01-21T17:02:31.577Z,101712.94
2023-01-21T17:05:02.269Z,101719.84
2023-01-21T17:07:32.882Z,101716.38
2023-01-21T17:10:07.319Z,101712.91
2023-01-21T17:12:36.430Z,101718.06
2023-01-21T17:15:19.616Z,101715.44
2023-01-21T17:17:47.291Z,101711.03
2023-01-21T17:42:48.154Z,101734.53
2023-01-21T17:49:33.513Z,101732.75
2023-01-21T17:52:01.124Z,101738.78
2023-01-21T20:13:13.934Z,101814.09
2023-01-21T20:15:43.082Z,101809.75
2023-01-21T20:18:22.926Z,101813.25
2023-01-21T20:38:34.974Z,101824.41
2023-01-21T21:11:57.540Z,101858.09
2023-01-21T21:23:16.246Z,101858.94
2023-01-21T21:26:35.727Z,101864.19
2023-01-21T22:18:45.838Z,101894.50
2023-01-21T22:25:53.846Z,101902.28
2023-01-21T22:40:56.149Z,101915.28
2023-01-21T22:52:12.615Z,101919.66
2023-01-21T23:00:02.606Z,101928.25
